Fort Madison, Iowa
Current Conditions -  °F | °C
As of 2:55 PM on Sunday 23 Nov 2014 (Local Time) from KFSW Reporting Station
Moderate Rain Moderate Rain  
Wind Chill: 54°   Ceiling: 500
Heat Index: 54°   Visibility: 2mi
Dew Point: 54°   Wind: 7mph
Humidity: 100%   Direction: 170°S
Pressure: 29.36"   Gusts: NA
Location:  40.63°N, 91.33°W
Report Text: KFSW 232055Z AUTO 17006KT 2SM RA OVC005 12/12 A2936 RMK AO2 P0001
Loading
Personal Weather Stations






























Interactive Weather Map New forecast layout! Learn more

10-Day Weather Forecast

Advertisements
Track Severe Weather on mobile